Time;durP1;ratioP1;P1;durP2;ratioP2;P2;SDS_P1;SDS_P2;PMS_P1;PMS_P2;Temp;Humidity;BMP_temperature;BMP_pressure;BME280_temperature;BME280_humidity;BME280_pressure;Samples;Min_cycle;Max_cycle;Signal;HPM_P1;HPM_P2
2022/01/21 00:00:58;;;;;;;13.68;1.15;;;;;;;-2.45;86.89;102216.47;6068732;28;20022;-71
2022/01/21 00:03:54;;;;;;;9.60;1.13;;;;;;;-2.44;87.26;102222.53;6070955;28;20026;-71
2022/01/21 00:06:49;;;;;;;9.35;1.27;;;;;;;-2.45;87.97;102223.44;6071578;28;20127;-70
2022/01/21 00:09:47;;;;;;;2.83;0.87;;;;;;;-2.46;88.00;102226.91;6074979;28;20588;-71
2022/01/21 00:12:42;;;;;;;4.93;1.23;;;;;;;-2.42;88.01;102232.00;6074486;28;20033;-70
2022/01/21 00:15:37;;;;;;;4.83;1.60;;;;;;;-2.46;87.76;102227.78;6074795;28;20038;-70
2022/01/21 00:18:35;;;;;;;9.03;1.17;;;;;;;-2.48;88.18;102226.94;6068502;28;20269;-71
2022/01/21 00:31:13;;;;;;;3.78;0.90;;;;;;;-2.39;88.49;102235.47;6070878;28;20037;-70
2022/01/21 00:34:09;;;;;;;4.77;1.43;;;;;;;-2.46;88.61;102240.75;6074323;28;20041;-70
2022/01/21 00:37:04;;;;;;;7.97;1.20;;;;;;;-2.50;88.91;102231.28;6074233;28;20630;-71
2022/01/21 00:40:01;;;;;;;10.73;1.67;;;;;;;-2.47;88.57;102235.56;6073050;28;20056;-69
2022/01/21 00:43:12;;;;;;;4.03;0.63;;;;;;;-2.46;88.47;102230.38;6068909;28;20041;-69
2022/01/21 00:46:07;;;;;;;4.10;0.70;;;;;;;-2.51;88.73;102218.34;6073908;28;20112;-70
2022/01/21 00:49:03;;;;;;;8.07;1.30;;;;;;;-2.49;88.59;102233.00;6071472;28;20086;-70
2022/01/21 00:51:59;;;;;;;9.60;1.77;;;;;;;-2.51;88.60;102228.72;6071611;28;20087;-70
2022/01/21 00:54:54;;;;;;;5.18;1.17;;;;;;;-2.51;88.25;102232.19;6073899;28;20037;-70
2022/01/21 00:57:50;;;;;;;3.20;0.70;;;;;;;-2.49;88.35;102240.81;6074265;28;20384;-70
2022/01/21 01:00:45;;;;;;;8.63;1.20;;;;;;;-2.49;88.21;102246.00;6063989;28;20018;-71
2022/01/21 01:03:40;;;;;;;9.65;1.05;;;;;;;-2.52;88.25;102238.25;6071204;28;20319;-70
2022/01/21 01:06:36;;;;;;;4.70;1.10;;;;;;;-2.56;88.09;102236.63;6073912;28;20048;-70
2022/01/21 01:09:32;;;;;;;5.73;1.30;;;;;;;-2.51;87.86;102244.31;6073569;28;20025;-70
2022/01/21 01:12:52;;;;;;;3.72;1.27;;;;;;;-2.53;87.75;102244.31;6067195;28;20351;-70
2022/01/21 01:22:17;;;;;;;3.72;1.48;;;;;;;-2.74;88.31;102231.69;6071857;28;20042;-70
2022/01/21 01:28:27;;;;;;;7.80;1.65;;;;;;;-2.92;88.95;102251.91;6074236;28;20029;-70
2022/01/21 01:31:22;;;;;;;3.40;1.20;;;;;;;-2.98;89.40;102249.38;6063977;28;20046;-70
2022/01/21 01:34:18;;;;;;;3.97;1.13;;;;;;;-3.05;89.14;102240.84;6072382;28;20029;-71
2022/01/21 01:37:27;;;;;;;4.03;1.00;;;;;;;-3.07;89.37;102247.78;6062426;28;20040;-70
2022/01/21 01:40:30;;;;;;;7.43;1.08;;;;;;;-3.12;89.80;102252.19;6072458;28;20439;-69
2022/01/21 01:49:38;;;;;;;11.15;1.75;;;;;;;-3.36;90.60;102255.09;6053495;28;20108;-70
2022/01/21 01:52:34;;;;;;;5.85;1.00;;;;;;;-3.38;91.13;102246.50;6070832;28;20500;-71
2022/01/21 01:55:29;;;;;;;10.93;1.33;;;;;;;-3.33;91.57;102249.88;6067709;28;20034;-71
2022/01/21 01:58:24;;;;;;;7.60;1.93;;;;;;;-3.23;91.98;102246.28;6054810;28;20491;-69
2022/01/21 02:01:20;;;;;;;5.87;1.50;;;;;;;-3.14;92.28;102235.78;6072388;28;20033;-69
2022/01/21 02:04:15;;;;;;;10.87;1.77;;;;;;;-3.01;92.22;102234.72;6068528;28;20037;-70
2022/01/21 02:07:10;;;;;;;9.93;1.57;;;;;;;-2.96;92.73;102242.47;6065325;28;20037;-70
2022/01/21 02:10:06;;;;;;;7.32;1.48;;;;;;;-2.93;92.79;102239.78;6065865;28;20491;-70
2022/01/21 02:13:17;;;;;;;6.90;1.27;;;;;;;-2.86;92.83;102231.06;6073030;28;20056;-70
2022/01/21 02:22:29;;;;;;;10.25;1.63;;;;;;;-2.69;93.19;102223.84;6060321;28;20044;-70
2022/01/21 02:25:24;;;;;;;7.20;1.92;;;;;;;-2.71;93.24;102216.09;6062715;28;20044;-69
2022/01/21 02:28:20;;;;;;;7.83;1.20;;;;;;;-2.68;93.42;102226.41;6071851;28;20385;-69
2022/01/21 02:31:15;;;;;;;12.27;1.92;;;;;;;-2.67;93.57;102209.97;6071638;28;20283;-68
2022/01/21 02:34:10;;;;;;;14.23;2.20;;;;;;;-2.62;93.38;102215.06;6069137;28;20057;-70
2022/01/21 02:37:06;;;;;;;11.63;1.80;;;;;;;-2.56;93.94;102210.66;6072440;28;20515;-70
2022/01/21 02:40:01;;;;;;;16.43;1.93;;;;;;;-2.59;93.56;102202.91;6063949;28;20050;-69
2022/01/21 02:42:56;;;;;;;9.03;1.77;;;;;;;-2.60;94.19;102198.59;6067460;28;20281;-70
2022/01/21 02:45:52;;;;;;;11.10;1.70;;;;;;;-2.57;93.65;102203.72;6072458;28;20045;-69
2022/01/21 02:48:48;;;;;;;7.63;1.43;;;;;;;-2.52;93.63;102206.25;6070939;28;20473;-70
2022/01/21 02:51:43;;;;;;;7.35;1.80;;;;;;;-2.50;93.89;102205.31;6076779;28;20272;-70
2022/01/21 02:54:38;;;;;;;11.57;1.60;;;;;;;-2.55;94.22;102219.28;6073379;28;20040;-70
2022/01/21 02:57:34;;;;;;;9.00;1.57;;;;;;;-2.54;94.26;102228.78;6075928;28;20033;-70
2022/01/21 03:00:29;;;;;;;7.60;1.42;;;;;;;-2.49;94.28;102222.63;6071670;28;20129;-70
2022/01/21 03:03:25;;;;;;;9.17;1.70;;;;;;;-2.39;94.10;102222.47;6075429;28;20132;-70
2022/01/21 03:06:22;;;;;;;10.55;1.50;;;;;;;-2.27;94.33;102230.03;6072157;28;20393;-71
2022/01/21 03:09:17;;;;;;;8.85;2.10;;;;;;;-2.23;94.20;102219.59;6069919;28;20030;-70
2022/01/21 03:12:12;;;;;;;10.00;1.60;;;;;;;-2.05;94.21;102223.56;6076038;28;20037;-69
2022/01/21 03:15:08;;;;;;;6.60;1.60;;;;;;;-1.92;94.25;102222.44;6076034;28;20393;-70
2022/01/21 03:18:04;;;;;;;9.85;1.25;;;;;;;-1.82;94.63;102230.00;6071492;28;20595;-70
2022/01/21 03:20:59;;;;;;;14.30;1.88;;;;;;;-1.71;94.19;102223.78;6072423;28;20030;-71
2022/01/21 03:23:55;;;;;;;4.60;1.08;;;;;;;-1.61;93.70;102228.75;6076008;28;20037;-70
2022/01/21 03:26:50;;;;;;;5.17;1.37;;;;;;;-1.58;93.61;102238.22;6058461;28;20442;-71
2022/01/21 03:29:46;;;;;;;8.13;2.03;;;;;;;-1.55;93.59;102236.41;6076348;28;20291;-70
2022/01/21 03:32:41;;;;;;;4.32;0.93;;;;;;;-1.58;93.63;102231.28;6070642;28;20041;-71
2022/01/21 03:35:37;;;;;;;6.57;1.93;;;;;;;-1.59;93.27;102229.56;6074980;28;20377;-70
2022/01/21 03:38:32;;;;;;;6.72;1.58;;;;;;;-1.61;93.05;102223.53;6071681;28;20029;-71
2022/01/21 03:41:27;;;;;;;9.90;1.42;;;;;;;-1.58;93.24;102218.28;6065914;28;20056;-70
2022/01/21 03:44:23;;;;;;;7.55;1.48;;;;;;;-1.62;93.20;102219.22;6071398;28;20030;-71
2022/01/21 03:47:18;;;;;;;5.67;1.20;;;;;;;-1.65;93.60;102221.88;6069106;28;20041;-71
2022/01/21 03:53:16;;;;;;;3.90;1.17;;;;;;;-1.76;93.20;102231.63;6075341;28;20388;-69
2022/01/21 03:56:14;;;;;;;4.97;1.50;;;;;;;-1.79;93.30;102230.88;6073430;28;20098;-70
2022/01/21 03:59:10;;;;;;;7.05;1.48;;;;;;;-1.78;93.45;102230.81;6073666;28;20061;-71
2022/01/21 04:02:06;;;;;;;12.47;1.77;;;;;;;-1.76;93.72;102225.56;6069933;28;20038;-70
2022/01/21 04:05:02;;;;;;;10.35;2.10;;;;;;;-1.76;93.38;102235.97;6074617;28;20037;-72
2022/01/21 04:07:57;;;;;;;10.65;1.77;;;;;;;-1.81;93.53;102233.47;6061653;28;20076;-70
2022/01/21 04:10:52;;;;;;;12.43;1.90;;;;;;;-1.75;93.57;102228.16;6074505;28;20047;-71
2022/01/21 04:13:48;;;;;;;10.47;2.23;;;;;;;-1.74;93.52;102242.88;6075149;28;20423;-71
2022/01/21 04:16:43;;;;;;;10.67;1.93;;;;;;;-1.79;93.60;102241.25;6074854;28;20056;-70
2022/01/21 04:19:39;;;;;;;7.78;1.30;;;;;;;-1.78;93.65;102238.63;6067782;28;20030;-70
2022/01/21 04:22:34;;;;;;;16.17;2.30;;;;;;;-1.84;93.51;102241.34;6074330;28;20037;-70
2022/01/21 04:25:29;;;;;;;9.60;1.80;;;;;;;-1.82;93.87;102253.41;6062899;28;20038;-70
2022/01/21 04:28:25;;;;;;;5.90;1.33;;;;;;;-1.84;94.03;102249.13;6072558;28;20303;-70
2022/01/21 04:31:20;;;;;;;7.17;1.43;;;;;;;-1.81;93.88;102249.06;6073557;28;20037;-71
2022/01/21 04:34:15;;;;;;;10.30;1.33;;;;;;;-1.74;93.88;102258.50;6072736;28;20503;-71
2022/01/21 04:37:12;;;;;;;9.43;1.50;;;;;;;-1.76;94.22;102257.63;6074948;28;20048;-69
2022/01/21 04:40:12;;;;;;;9.82;2.00;;;;;;;-1.73;93.80;102254.13;6073336;28;20021;-70
2022/01/21 04:49:36;;;;;;;7.75;1.67;;;;;;;-1.71;94.34;102245.41;6073293;28;19952;-70
2022/01/21 04:52:32;;;;;;;12.60;2.03;;;;;;;-1.73;94.38;102231.59;6073735;28;20030;-71
2022/01/21 04:55:27;;;;;;;6.20;1.33;;;;;;;-1.67;94.57;102235.81;6066643;28;20037;-70
2022/01/21 04:58:22;;;;;;;17.10;1.73;;;;;;;-1.70;94.44;102226.31;6074363;28;20415;-69
2022/01/21 05:01:17;;;;;;;7.93;1.63;;;;;;;-1.67;94.51;102217.59;6073060;28;20048;-70
2022/01/21 05:04:13;;;;;;;9.33;1.37;;;;;;;-1.67;94.36;102223.66;6073301;28;20052;-71
2022/01/21 05:07:11;;;;;;;11.00;1.67;;;;;;;-1.66;94.42;102202.00;6070693;28;20029;-71
2022/01/21 05:10:07;;;;;;;9.25;3.25;;;;;;;-1.71;94.58;102203.81;6056975;28;20034;-70
2022/01/21 05:13:03;;;;;;;8.93;1.35;;;;;;;-1.73;94.68;102197.78;6069424;28;20049;-70
2022/01/21 05:16:06;;;;;;;8.00;1.77;;;;;;;-1.67;94.56;102205.47;6061188;28;20041;-71
2022/01/21 05:19:14;;;;;;;7.38;1.13;;;;;;;-1.76;95.15;102192.66;6068403;28;20073;-70
2022/01/21 05:22:10;;;;;;;8.18;2.13;;;;;;;-1.64;94.84;102199.34;6069364;28;20033;-70
2022/01/21 05:25:05;;;;;;;8.77;2.57;;;;;;;-1.61;95.05;102200.16;6069164;28;20029;-69
2022/01/21 05:28:01;;;;;;;4.30;0.85;;;;;;;-1.47;94.88;102195.47;6073881;28;20030;-70
2022/01/21 05:30:56;;;;;;;15.33;2.37;;;;;;;-1.40;94.76;102191.00;6072030;28;20045;-70
2022/01/21 05:33:51;;;;;;;8.53;1.53;;;;;;;-1.30;94.84;102193.38;6072440;28;20435;-71
2022/01/21 05:36:47;;;;;;;15.43;2.17;;;;;;;-1.26;94.85;102195.03;6064209;28;20052;-70
2022/01/21 05:39:42;;;;;;;8.48;1.73;;;;;;;-1.21;94.71;102200.97;6073154;28;20026;-71
2022/01/21 05:42:37;;;;;;;8.40;1.83;;;;;;;-1.12;94.63;102205.13;6065853;28;20030;-69
2022/01/21 05:48:47;;;;;;;9.35;1.63;;;;;;;-1.08;94.57;102203.28;6059178;28;20389;-71
2022/01/21 05:51:42;;;;;;;8.03;1.67;;;;;;;-0.96;94.41;102200.41;6060103;28;20033;-70
2022/01/21 05:54:38;;;;;;;10.73;1.73;;;;;;;-0.96;94.06;102195.19;6073286;28;20416;-70
2022/01/21 05:57:33;;;;;;;10.37;1.60;;;;;;;-0.93;93.89;102189.91;6072499;28;20052;-71
2022/01/21 06:00:28;;;;;;;5.27;1.33;;;;;;;-0.90;93.75;102195.91;6071201;28;20045;-70
2022/01/21 06:03:24;;;;;;;10.73;1.33;;;;;;;-0.86;93.53;102191.47;6064614;28;20030;-71
2022/01/21 06:06:19;;;;;;;6.07;1.43;;;;;;;-0.84;93.37;102205.28;6072759;28;20111;-69
2022/01/21 06:09:14;;;;;;;7.17;1.40;;;;;;;-0.83;93.33;102201.81;6072152;28;20061;-70
2022/01/21 06:12:11;;;;;;;5.63;1.57;;;;;;;-0.79;93.05;102200.88;6070121;28;20287;-70
2022/01/21 06:15:06;;;;;;;11.57;2.10;;;;;;;-0.73;93.05;102209.34;6067621;28;20112;-70
2022/01/21 06:18:02;;;;;;;4.70;1.00;;;;;;;-0.68;92.77;102207.50;6071044;28;20370;-70
2022/01/21 06:20:57;;;;;;;5.57;2.00;;;;;;;-0.67;92.55;102213.56;6072088;28;20060;-70
2022/01/21 06:23:52;;;;;;;10.68;1.40;;;;;;;-0.64;92.16;102208.28;6070737;28;20061;-71
2022/01/21 06:26:48;;;;;;;5.57;1.40;;;;;;;-0.67;92.54;102213.56;6072822;28;20083;-70
2022/01/21 06:29:43;;;;;;;8.53;1.63;;;;;;;-0.63;92.47;102225.63;6072281;28;20022;-70
2022/01/21 06:32:38;;;;;;;13.03;1.30;;;;;;;-0.58;92.38;102215.94;6068645;28;20108;-71
2022/01/21 06:35:34;;;;;;;9.00;1.50;;;;;;;-0.61;92.72;102224.69;6063711;28;20057;-71
2022/01/21 06:38:29;;;;;;;10.37;2.23;;;;;;;-0.58;92.42;102230.72;6063535;28;20049;-71
2022/01/21 06:41:24;;;;;;;7.03;1.20;;;;;;;-0.55;92.53;102228.91;6072463;28;20025;-70
2022/01/21 06:44:20;;;;;;;11.87;1.30;;;;;;;-0.50;92.93;102236.59;6071557;28;20037;-70
2022/01/21 06:47:16;;;;;;;6.97;1.70;;;;;;;-0.50;92.71;102227.03;6058830;28;20056;-71
2022/01/21 06:50:11;;;;;;;6.38;1.35;;;;;;;-0.44;93.08;102231.22;6070387;28;20037;-69
2022/01/21 06:53:07;;;;;;;9.55;1.48;;;;;;;-0.48;93.20;102226.97;6068673;28;20044;-70
2022/01/21 06:56:02;;;;;;;14.88;2.40;;;;;;;-0.42;93.79;102232.91;6073114;28;20532;-71
2022/01/21 06:58:58;;;;;;;6.53;1.63;;;;;;;-0.39;93.61;102245.00;6072003;28;20091;-70
2022/01/21 07:01:53;;;;;;;18.45;2.30;;;;;;;-0.42;93.67;102245.94;6072553;28;20036;-71
2022/01/21 07:04:49;;;;;;;15.57;3.60;;;;;;;-0.40;93.84;102238.91;6071962;28;20045;-71
2022/01/21 07:07:45;;;;;;;10.85;2.58;;;;;;;-0.38;94.04;102226.69;6072003;28;20456;-71
2022/01/21 07:10:41;;;;;;;4.55;2.20;;;;;;;-0.35;94.24;102230.97;6057812;28;20037;-71
2022/01/21 07:13:36;;;;;;;4.13;1.38;;;;;;;-0.36;94.33;102227.53;6073335;28;20484;-71
2022/01/21 07:16:32;;;;;;;7.97;2.00;;;;;;;-0.31;94.20;102238.69;6071905;28;20055;-70
2022/01/21 07:19:27;;;;;;;4.13;1.50;;;;;;;-0.29;93.70;102243.84;6071971;28;20029;-72
2022/01/21 07:22:22;;;;;;;9.13;1.67;;;;;;;-0.30;93.95;102243.00;6071702;28;20033;-72
2022/01/21 07:25:19;;;;;;;8.90;2.47;;;;;;;-0.22;93.82;102248.84;6071876;28;20029;-72
2022/01/21 07:28:14;;;;;;;9.05;1.88;;;;;;;-0.20;93.79;102249.69;6070977;28;20568;-72
2022/01/21 07:31:09;;;;;;;9.40;2.17;;;;;;;-0.22;93.78;102248.84;6072735;28;20037;-71
2022/01/21 07:34:06;;;;;;;11.17;2.50;;;;;;;-0.15;94.09;102239.13;6076424;28;20038;-71
2022/01/21 07:37:01;;;;;;;12.57;1.85;;;;;;;-0.11;93.82;102231.19;6076467;28;20095;-71
2022/01/21 07:39:57;;;;;;;11.70;2.45;;;;;;;-0.10;94.00;102243.34;6075082;28;20420;-72
2022/01/21 07:42:52;;;;;;;18.33;2.27;;;;;;;-0.05;93.72;102246.66;6076446;28;20037;-72
2022/01/21 07:45:47;;;;;;;12.47;2.10;;;;;;;-0.01;93.32;102243.09;6073389;28;20036;-72
2022/01/21 07:48:43;;;;;;;6.93;1.30;;;;;;;0.08;93.64;102241.13;6072887;28;20288;-72
2022/01/21 07:51:39;;;;;;;8.00;2.03;;;;;;;0.20;93.49;102240.78;6074178;28;20075;-72
2022/01/21 07:54:35;;;;;;;9.07;1.50;;;;;;;0.24;93.17;102242.44;6076005;28;20110;-72
2022/01/21 07:57:30;;;;;;;7.80;2.23;;;;;;;0.22;93.09;102224.19;6068370;28;20455;-72
2022/01/21 08:00:25;;;;;;;8.73;2.23;;;;;;;0.23;93.45;102235.47;6057430;28;20040;-72
2022/01/21 08:03:21;;;;;;;9.73;1.63;;;;;;;0.28;93.36;102234.47;6072508;28;20040;-72
2022/01/21 08:06:16;;;;;;;5.47;2.10;;;;;;;0.30;93.44;102242.25;6052550;28;20057;-72
2022/01/21 08:09:11;;;;;;;6.67;2.03;;;;;;;0.27;93.93;102227.53;6052046;28;20057;-72
2022/01/21 08:12:08;;;;;;;13.93;2.23;;;;;;;0.30;93.85;102232.66;6069152;28;20296;-73
2022/01/21 08:15:04;;;;;;;9.00;2.45;;;;;;;0.30;94.24;102231.81;6062986;28;20041;-73
2022/01/21 08:17:59;;;;;;;21.02;3.58;;;;;;;0.35;93.71;102232.53;6070363;28;20026;-74
2022/01/21 08:20:55;;;;;;;11.10;2.70;;;;;;;0.36;94.15;102242.06;6075073;28;20033;-73
2022/01/21 08:23:52;;;;;;;14.00;5.50;;;;;;;0.42;94.32;102247.09;6075577;28;20038;-73
2022/01/21 08:26:47;;;;;;;8.52;3.42;;;;;;;0.43;94.29;102252.31;6073643;28;20026;-73
2022/01/21 08:29:43;;;;;;;17.53;3.47;;;;;;;0.44;94.10;102260.97;6073094;28;20036;-74
2022/01/21 08:32:38;;;;;;;7.17;2.50;;;;;;;0.48;94.16;102258.25;6055249;28;20041;-72
2022/01/21 08:35:33;;;;;;;13.50;2.57;;;;;;;0.51;94.02;102260.75;6049478;28;20272;-72
2022/01/21 08:38:29;;;;;;;11.23;2.73;;;;;;;0.58;93.52;102266.66;6048983;28;20061;-72
2022/01/21 08:41:24;;;;;;;12.13;3.10;;;;;;;0.60;93.60;102277.88;6069424;28;20037;-72
2022/01/21 08:44:19;;;;;;;10.63;2.57;;;;;;;0.58;93.69;102280.56;6075991;28;20033;-71
2022/01/21 08:47:15;;;;;;;8.63;2.50;;;;;;;0.57;93.58;102293.66;6075103;28;20040;-71
2022/01/21 08:50:13;;;;;;;4.85;1.73;;;;;;;0.54;93.70;102294.56;6070603;28;20057;-71
2022/01/21 08:56:22;;;;;;;8.98;2.40;;;;;;;0.56;93.90;102286.72;6063474;28;20041;-69
2022/01/21 08:59:18;;;;;;;14.53;3.33;;;;;;;0.54;93.33;102296.34;6074908;28;20029;-70
2022/01/21 09:02:14;;;;;;;13.55;2.63;;;;;;;0.55;93.77;102293.69;6074700;28;20033;-69
2022/01/21 09:05:09;;;;;;;8.90;3.13;;;;;;;0.62;93.78;102297.00;6074982;28;20124;-69
2022/01/21 09:08:05;;;;;;;9.85;3.00;;;;;;;0.66;93.38;102301.19;6059364;28;20026;-69
2022/01/21 09:11:02;;;;;;;10.60;2.63;;;;;;;0.88;93.04;102309.25;6050326;28;20026;-69
2022/01/21 09:13:59;;;;;;;11.18;2.50;;;;;;;1.08;92.99;102306.94;6067463;28;20041;-69
2022/01/21 09:16:55;;;;;;;7.78;2.05;;;;;;;1.15;92.45;102298.84;6075359;28;20037;-69
2022/01/21 09:19:51;;;;;;;9.38;2.00;;;;;;;1.12;91.65;102298.06;6074504;28;20164;-69
2022/01/21 09:22:46;;;;;;;10.57;2.00;;;;;;;1.11;91.69;102302.44;6073590;28;20504;-69
2022/01/21 09:25:42;;;;;;;6.30;2.07;;;;;;;1.09;91.09;102303.38;6077907;28;20037;-69
2022/01/21 09:28:37;;;;;;;9.25;1.90;;;;;;;0.98;90.85;102298.50;6071405;28;20156;-68
2022/01/21 09:31:33;;;;;;;7.77;2.43;;;;;;;0.95;91.03;102301.19;6073595;28;20030;-70
2022/01/21 09:34:28;;;;;;;7.63;2.15;;;;;;;0.97;91.34;102309.88;6072036;28;20100;-70
2022/01/21 09:37:24;;;;;;;12.13;3.15;;;;;;;1.00;91.43;102315.00;6050515;28;20025;-70
2022/01/21 09:40:19;;;;;;;8.00;2.70;;;;;;;0.98;91.34;102310.72;6049820;28;20045;-70
2022/01/21 09:43:15;;;;;;;12.43;3.33;;;;;;;1.05;91.70;102313.09;6050491;28;20041;-72
2022/01/21 09:46:12;;;;;;;12.38;3.00;;;;;;;1.05;91.77;102314.84;6073493;28;20025;-71
2022/01/21 09:49:20;;;;;;;9.38;1.80;;;;;;;1.10;91.61;102311.19;6057331;28;20095;-70
2022/01/21 09:52:19;;;;;;;9.25;2.58;;;;;;;1.14;91.41;102317.19;6072959;28;20033;-72
2022/01/21 09:55:17;;;;;;;10.13;2.60;;;;;;;1.11;91.35;102312.06;6073911;28;20602;-71
2022/01/21 09:58:13;;;;;;;10.45;2.88;;;;;;;1.31;91.19;102324.50;6073693;28;20037;-71
2022/01/21 10:01:09;;;;;;;9.20;2.17;;;;;;;1.56;91.36;102330.66;6078754;28;20084;-71
2022/01/21 10:04:04;;;;;;;12.30;2.20;;;;;;;1.53;90.13;102325.53;6072915;28;20035;-71
2022/01/21 10:07:01;;;;;;;13.57;1.90;;;;;;;1.41;90.17;102316.34;6066261;28;20385;-71
2022/01/21 10:09:57;;;;;;;6.55;2.05;;;;;;;1.33;90.06;102330.53;6066356;28;20069;-71
2022/01/21 10:13:01;;;;;;;6.63;2.05;;;;;;;1.39;90.47;102338.16;6066171;28;20400;-71
2022/01/21 10:15:56;;;;;;;9.10;2.42;;;;;;;1.57;90.57;102332.38;6057632;28;20045;-71
2022/01/21 10:19:06;;;;;;;8.20;2.50;;;;;;;1.57;89.56;102324.53;6073374;28;20037;-71
2022/01/21 10:22:10;;;;;;;5.93;2.08;;;;;;;1.55;89.57;102328.97;6072511;28;20032;-71
2022/01/21 10:25:10;;;;;;;7.53;2.38;;;;;;;1.66;89.78;102338.16;6073145;28;20075;-71
2022/01/21 10:28:17;;;;;;;10.35;2.05;;;;;;;1.81;89.39;102334.19;6073263;28;20026;-70
2022/01/21 10:31:15;;;;;;;5.90;2.17;;;;;;;1.86;89.03;102334.91;6072164;28;20095;-70
2022/01/21 10:34:11;;;;;;;10.48;2.45;;;;;;;1.75;88.62;102337.88;6073385;28;20044;-69
2022/01/21 10:37:24;;;;;;;12.35;2.60;;;;;;;1.75;88.76;102335.25;6063889;28;20042;-69
2022/01/21 10:40:21;;;;;;;6.00;2.35;;;;;;;1.66;89.38;102335.53;6072716;28;20095;-69
2022/01/21 10:43:18;;;;;;;7.82;2.10;;;;;;;1.67;89.21;102333.78;6073195;28;20565;-69
2022/01/21 10:46:15;;;;;;;13.43;2.30;;;;;;;1.77;89.50;102335.19;6082156;28;20072;-69
2022/01/21 10:49:13;;;;;;;12.55;2.58;;;;;;;1.74;88.87;102332.66;6064345;28;20120;-68
2022/01/21 10:52:09;;;;;;;15.73;2.50;;;;;;;1.79;88.49;102333.41;6061922;28;20042;-68
2022/01/21 10:55:25;;;;;;;8.90;2.67;;;;;;;1.89;88.89;102337.41;6064095;28;20022;-68
2022/01/21 10:58:21;;;;;;;7.15;2.40;;;;;;;1.83;88.33;102341.97;6072957;28;20036;-69
2022/01/21 11:01:21;;;;;;;7.63;3.10;;;;;;;1.80;88.49;102345.56;6072647;28;20057;-68
2022/01/21 11:04:16;;;;;;;6.78;2.50;;;;;;;2.15;88.33;102339.13;6067429;28;20041;-68
2022/01/21 11:07:15;;;;;;;7.67;2.83;;;;;;;2.24;87.72;102338.84;6075413;28;20052;-69
2022/01/21 11:10:34;;;;;;;6.32;2.40;;;;;;;2.21;87.76;102347.66;6076734;28;20283;-69
2022/01/21 11:13:31;;;;;;;7.10;2.40;;;;;;;2.31;86.57;102354.25;6078609;28;20034;-69
2022/01/21 11:16:33;;;;;;;7.80;2.10;;;;;;;2.39;86.80;102351.41;6066703;28;20030;-70
2022/01/21 11:19:34;;;;;;;8.95;2.33;;;;;;;2.48;86.13;102350.19;6054029;28;20481;-70
2022/01/21 11:22:30;;;;;;;6.18;2.20;;;;;;;2.65;86.40;102353.06;6067364;28;20045;-70
2022/01/21 11:25:48;;;;;;;7.50;2.38;;;;;;;2.52;85.76;102351.81;6076966;28;20480;-70
2022/01/21 11:28:46;;;;;;;9.15;2.22;;;;;;;2.42;86.95;102352.13;6076522;28;20041;-70
2022/01/21 11:31:42;;;;;;;5.65;2.08;;;;;;;2.40;86.70;102348.72;6052330;28;20125;-69
2022/01/21 11:34:38;;;;;;;11.40;2.25;;;;;;;2.34;86.46;102332.34;6073033;28;20128;-70
2022/01/21 11:37:34;;;;;;;6.47;1.90;;;;;;;2.41;87.24;102344.34;6063032;28;20083;-70
2022/01/21 11:40:30;;;;;;;9.37;2.53;;;;;;;2.46;87.29;102355.50;6074964;28;20037;-70
2022/01/21 11:43:27;;;;;;;9.85;2.10;;;;;;;2.53;86.61;102343.06;6073164;28;20380;-70
2022/01/21 11:49:32;;;;;;;5.80;1.92;;;;;;;2.50;86.75;102343.16;6054595;28;20026;-70
2022/01/21 11:52:27;;;;;;;11.07;2.75;;;;;;;2.48;86.21;102337.97;6069251;28;20037;-70
2022/01/21 11:55:35;;;;;;;6.45;2.60;;;;;;;2.42;86.79;102346.88;6058619;28;20025;-70
2022/01/21 11:58:30;;;;;;;8.85;2.53;;;;;;;2.40;86.65;102340.88;6071023;28;20037;-70
2022/01/21 12:01:46;;;;;;;10.30;2.37;;;;;;;2.38;87.71;102342.69;6070748;28;20539;-70
2022/01/21 12:04:50;;;;;;;9.43;2.85;;;;;;;2.39;87.36;102341.75;6054799;28;20036;-70
2022/01/21 12:07:48;;;;;;;8.27;2.40;;;;;;;2.39;87.76;102341.75;6063770;28;20030;-70
2022/01/21 12:10:45;;;;;;;10.25;2.88;;;;;;;2.39;87.80;102335.69;6075109;28;20492;-70
2022/01/21 12:13:40;;;;;;;5.07;2.20;;;;;;;2.34;87.29;102332.34;6075676;28;20065;-70
2022/01/21 12:17:01;;;;;;;8.67;2.83;;;;;;;2.41;88.51;102326.03;6079876;28;20494;-70
2022/01/21 12:20:07;;;;;;;8.65;2.83;;;;;;;2.51;87.72;102314.31;6067090;28;20109;-70
2022/01/21 12:23:15;;;;;;;9.55;2.88;;;;;;;2.60;87.88;102324.44;6075815;28;20472;-70
2022/01/21 12:26:11;;;;;;;7.57;2.33;;;;;;;2.61;87.41;102313.03;6075478;28;20060;-70
2022/01/21 12:29:12;;;;;;;9.83;2.40;;;;;;;2.64;86.85;102314.69;6086739;28;20502;-70
2022/01/21 12:32:16;;;;;;;;;;;;;;;2.73;86.97;102310.00;6051559;28;20042;-69
2022/01/21 12:35:16;;;;;;;5.95;2.15;;;;;;;2.71;86.68;102316.19;6052064;28;20049;-69
2022/01/21 12:41:25;;;;;;;11.27;3.13;;;;;;;2.61;86.51;102313.03;6064575;28;20060;-69
2022/01/21 12:44:30;;;;;;;7.10;1.93;;;;;;;2.60;86.82;102323.59;6075051;28;20055;-69
2022/01/21 12:47:27;;;;;;;6.63;2.13;;;;;;;2.61;87.30;102309.59;6075317;28;20029;-69
2022/01/21 12:53:34;;;;;;;11.85;2.63;;;;;;;2.63;87.19;102307.78;6071834;28;20041;-69
2022/01/21 12:56:29;;;;;;;14.65;2.28;;;;;;;2.70;87.70;102310.09;6067937;28;20033;-69
2022/01/21 12:59:27;;;;;;;10.07;2.43;;;;;;;2.73;87.09;102299.50;6074049;28;20144;-70
2022/01/21 13:02:24;;;;;;;13.80;2.10;;;;;;;2.83;86.79;102300.00;6074436;28;20029;-69
2022/01/21 13:05:30;;;;;;;8.48;2.08;;;;;;;2.89;86.42;102305.03;6074721;28;20044;-69
2022/01/21 13:08:33;;;;;;;4.35;1.95;;;;;;;2.94;86.66;102295.22;6055563;28;20049;-69
2022/01/21 13:11:30;;;;;;;10.82;2.40;;;;;;;3.02;86.36;102301.03;6050232;28;20036;-70
2022/01/21 13:17:26;;;;;;;;;;;;;;;3.00;86.23;102288.00;6074922;28;20048;-70
2022/01/21 13:20:29;;;;;;;3.70;1.87;;;;;;;2.91;86.29;102285.72;6073699;28;19913;-70
2022/01/21 13:26:51;;;;;;;7.63;1.85;;;;;;;2.92;86.03;102291.81;6079984;28;20090;-69
2022/01/21 13:29:47;;;;;;;14.73;1.73;;;;;;;2.87;86.55;102296.38;6058856;28;20516;-70
2022/01/21 13:32:43;;;;;;;7.00;1.77;;;;;;;2.85;86.62;102285.13;6053276;28;20037;-70
2022/01/21 13:35:42;;;;;;;3.97;1.60;;;;;;;2.88;86.63;102292.84;6064151;28;20030;-70
2022/01/21 13:38:41;;;;;;;8.35;1.73;;;;;;;2.84;87.05;102280.78;6071655;28;20384;-70
2022/01/21 13:41:53;;;;;;;7.55;1.80;;;;;;;2.81;87.86;102278.28;6050476;28;20041;-70
2022/01/21 13:44:50;;;;;;;9.65;1.60;;;;;;;2.79;87.43;102282.72;6071885;28;20040;-70
2022/01/21 13:47:45;;;;;;;12.63;1.88;;;;;;;2.74;87.81;102280.28;6079168;28;20038;-70
2022/01/21 13:50:45;;;;;;;4.68;1.65;;;;;;;2.74;88.08;102285.53;6061529;28;20036;-70
2022/01/21 13:53:44;;;;;;;6.75;1.73;;;;;;;2.73;88.99;102278.56;6067872;28;20041;-70
2022/01/21 13:56:46;;;;;;;12.07;1.80;;;;;;;2.71;88.04;102279.53;6072917;28;20112;-70
2022/01/21 13:59:45;;;;;;;6.72;1.48;;;;;;;2.67;89.26;102270.06;6072860;28;20037;-70
2022/01/21 14:02:40;;;;;;;4.72;1.45;;;;;;;2.64;89.24;102272.81;6067657;28;20503;-71
2022/01/21 14:05:59;;;;;;;9.10;1.37;;;;;;;2.63;89.26;102276.34;6071143;28;20048;-71
2022/01/21 14:08:57;;;;;;;11.55;2.00;;;;;;;2.59;89.63;102283.47;6072554;28;20033;-71
2022/01/21 14:11:52;;;;;;;5.97;2.00;;;;;;;2.61;89.73;102278.19;6071411;28;20044;-71
2022/01/21 14:14:53;;;;;;;8.05;2.13;;;;;;;2.60;89.72;102292.16;6073142;28;20033;-71
2022/01/21 14:17:48;;;;;;;9.48;1.88;;;;;;;2.56;89.95;102283.56;6071723;28;20030;-71
2022/01/21 14:20:43;;;;;;;8.53;2.33;;;;;;;2.56;90.00;102287.94;6059247;28;20380;-71
2022/01/21 14:23:40;;;;;;;5.97;2.53;;;;;;;2.61;89.95;102289.47;6073217;28;20034;-71
2022/01/21 14:26:50;;;;;;;6.75;2.30;;;;;;;2.59;89.84;102290.44;6072096;28;20045;-71
2022/01/21 14:30:07;;;;;;;6.43;2.47;;;;;;;2.56;89.94;102273.09;6071872;28;20032;-72
2022/01/21 14:33:04;;;;;;;8.32;2.72;;;;;;;2.58;90.04;102267.81;6073279;28;20397;-71
2022/01/21 14:36:11;;;;;;;7.50;2.40;;;;;;;2.57;89.98;102266.09;6072879;28;20049;-72
2022/01/21 14:39:17;;;;;;;16.85;6.05;;;;;;;2.57;89.86;102255.63;6076883;28;20044;-72
2022/01/21 14:42:24;;;;;;;7.38;2.85;;;;;;;2.54;90.30;102256.59;6076544;28;20041;-72
2022/01/21 14:45:20;;;;;;;8.70;2.25;;;;;;;2.57;90.49;102255.63;6074968;28;20112;-72
2022/01/21 14:48:18;;;;;;;5.45;1.83;;;;;;;2.54;89.39;102258.34;6077547;28;20039;-72
2022/01/21 14:51:17;;;;;;;5.97;2.50;;;;;;;2.54;89.84;102258.34;6075793;28;20041;-72